Maybell, Mississippi
Current Conditions -  °F | °C
As of 1:55 PM on Sunday 21 Dec 2014 (Local Time) from KPIB Reporting Station
Overcast Overcast  
Wind Chill: 52°   Ceiling: 800
Heat Index: 52°   Visibility: 8mi
Dew Point: 46°   Wind: 3mph
Humidity: 82%   Direction: 100°E
Pressure: 30.05"   Gusts: NA
Location:  31.5533°N, 89.2322°W
Report Text: KPIB 211955Z AUTO 10003KT 8SM OVC008 11/08 A3005 RMK AO1
Loading
Personal Weather Stations






























Interactive Weather Map New forecast layout! Learn more

10-Day Weather Forecast

Advertisements
Track Severe Weather on mobile